createdAt,value
2018-05-07T00:01:41.737Z,17.48
2018-05-07T00:04:09.572Z,17.59
2018-05-07T00:06:37.291Z,17.64
2018-05-07T00:09:05.016Z,17.72
2018-05-07T00:11:32.804Z,17.77
2018-05-07T00:14:00.373Z,17.84
2018-05-07T00:16:28.269Z,17.95
2018-05-07T00:18:55.992Z,17.95
2018-05-07T00:21:23.633Z,17.85
2018-05-07T00:23:51.346Z,17.98
2018-05-07T00:26:19.154Z,17.95
2018-05-07T00:28:46.841Z,17.99
2018-05-07T00:31:14.436Z,17.96
2018-05-07T00:33:42.277Z,17.94
2018-05-07T00:36:09.968Z,18.02
2018-05-07T00:38:37.682Z,18.08
2018-05-07T00:41:05.452Z,18.07
2018-05-07T00:43:33.169Z,18.05
2018-05-07T00:46:00.989Z,18.09
2018-05-07T00:48:28.783Z,18.15
2018-05-07T00:50:56.423Z,18.15
2018-05-07T00:53:24.044Z,18.03
2018-05-07T00:55:51.948Z,17.96
2018-05-07T00:58:19.520Z,17.88
2018-05-07T01:00:47.500Z,17.92
2018-05-07T01:03:15.304Z,17.87
2018-05-07T01:05:43.150Z,17.83
2018-05-07T01:08:11.025Z,17.86
2018-05-07T01:10:38.700Z,17.87
2018-05-07T01:13:06.976Z,17.76
2018-05-07T01:15:34.610Z,17.90
2018-05-07T01:18:02.432Z,17.90
2018-05-07T01:20:30.019Z,17.84
2018-05-07T01:22:57.865Z,17.84
2018-05-07T01:25:25.509Z,17.87
2018-05-07T01:27:53.305Z,17.83
2018-05-07T01:30:21.224Z,17.78
2018-05-07T01:32:48.819Z,17.75
2018-05-07T01:35:16.752Z,17.76
2018-05-07T01:37:44.324Z,17.75
2018-05-07T01:40:11.943Z,17.83
2018-05-07T01:42:39.816Z,17.81
2018-05-07T01:45:07.380Z,17.73
2018-05-07T01:47:35.154Z,17.59
2018-05-07T01:50:02.744Z,17.48
2018-05-07T01:52:30.390Z,17.47
2018-05-07T01:54:58.177Z,17.57
2018-05-07T01:57:26.028Z,17.62
2018-05-07T01:59:54.057Z,17.65
2018-05-07T02:02:21.848Z,17.65
2018-05-07T02:04:49.458Z,17.62
2018-05-07T02:07:17.261Z,17.54
2018-05-07T02:09:44.847Z,17.49
2018-05-07T02:12:12.637Z,17.49
2018-05-07T02:14:41.533Z,17.46
2018-05-07T02:17:09.225Z,17.48
2018-05-07T02:19:36.838Z,17.53
2018-05-07T02:22:04.449Z,17.56
2018-05-07T02:24:32.331Z,17.59
2018-05-07T02:27:00.043Z,17.64
2018-05-07T02:29:27.647Z,17.64
2018-05-07T02:31:55.489Z,17.66
2018-05-07T02:34:23.304Z,17.65
2018-05-07T02:36:51.026Z,17.68
2018-05-07T02:39:18.854Z,17.69
2018-05-07T02:41:46.682Z,17.73
2018-05-07T02:44:14.479Z,17.78
2018-05-07T02:46:42.192Z,17.76
2018-05-07T02:49:10.275Z,17.78
2018-05-07T02:51:38.036Z,17.80
2018-05-07T02:54:05.597Z,17.81
2018-05-07T02:56:33.276Z,17.78
2018-05-07T02:59:00.908Z,17.78
2018-05-07T03:01:28.477Z,17.81
2018-05-07T03:03:56.327Z,17.72
2018-05-07T03:06:24.249Z,17.71
2018-05-07T03:08:51.936Z,17.66
2018-05-07T03:11:20.026Z,17.65
2018-05-07T03:13:47.700Z,17.62
2018-05-07T03:16:15.589Z,17.61
2018-05-07T03:18:43.200Z,17.67
2018-05-07T03:21:10.859Z,17.71
2018-05-07T03:23:38.476Z,17.71
2018-05-07T03:26:06.139Z,17.65
2018-05-07T03:28:33.873Z,17.67
2018-05-07T03:31:01.930Z,17.71
2018-05-07T03:33:29.744Z,17.71
2018-05-07T03:35:57.341Z,17.68
2018-05-07T03:38:25.170Z,17.70
2018-05-07T03:40:52.844Z,17.71
2018-05-07T03:43:20.429Z,17.74
2018-05-07T03:45:48.116Z,17.73
2018-05-07T03:48:15.692Z,17.78
2018-05-07T03:50:43.361Z,17.80
2018-05-07T03:53:11.227Z,17.80
2018-05-07T03:55:39.208Z,17.83
2018-05-07T03:58:07.033Z,17.86
2018-05-07T04:00:34.625Z,17.84
2018-05-07T04:03:02.221Z,17.80
2018-05-07T04:05:29.884Z,17.86
2018-05-07T04:07:57.525Z,17.83
2018-05-07T04:10:25.169Z,17.82
2018-05-07T04:12:53.131Z,17.77
2018-05-07T04:15:20.711Z,17.81
2018-05-07T04:18:00.109Z,17.85
2018-05-07T04:20:39.395Z,17.84
2018-05-07T04:23:18.779Z,17.92
2018-05-07T04:25:46.657Z,18.05
2018-05-07T04:28:14.235Z,18.16
2018-05-07T04:30:41.925Z,18.28
2018-05-07T04:33:09.488Z,18.39
2018-05-07T04:35:37.065Z,18.39
2018-05-07T04:38:04.742Z,18.42
2018-05-07T04:40:32.333Z,18.52
2018-05-07T04:42:59.925Z,18.60
2018-05-07T04:45:27.500Z,18.53
2018-05-07T04:47:55.132Z,18.48
2018-05-07T04:50:23.013Z,18.50
2018-05-07T04:52:50.714Z,18.49
2018-05-07T04:55:18.432Z,18.52
2018-05-07T04:57:45.988Z,18.62
2018-05-07T05:00:14.411Z,18.72
2018-05-07T05:02:41.992Z,18.83
2018-05-07T05:05:09.636Z,18.91
2018-05-07T05:07:37.244Z,18.99
2018-05-07T05:10:04.836Z,19.07
2018-05-07T05:12:32.418Z,19.14
2018-05-07T05:15:00.016Z,19.37
2018-05-07T05:17:27.836Z,19.66
2018-05-07T05:19:55.399Z,19.84
2018-05-07T05:22:23.057Z,19.94
2018-05-07T05:24:50.793Z,20.07
2018-05-07T05:27:18.413Z,20.15
2018-05-07T05:29:45.973Z,20.28
2018-05-07T05:32:13.542Z,20.36
2018-05-07T05:34:41.365Z,20.33
2018-05-07T05:37:08.920Z,20.16
2018-05-07T05:39:36.700Z,20.16
2018-05-07T05:42:04.274Z,20.10
2018-05-07T05:44:31.927Z,20.03
2018-05-07T05:46:59.627Z,20.00
2018-05-07T05:49:27.201Z,20.05
2018-05-07T05:51:54.993Z,20.00
2018-05-07T05:54:22.897Z,19.92
2018-05-07T05:56:50.741Z,19.95
2018-05-07T05:59:18.314Z,19.93
2018-05-07T06:01:45.897Z,19.95
2018-05-07T06:04:13.637Z,20.01
2018-05-07T06:06:41.402Z,19.93
2018-05-07T06:09:09.011Z,19.84
2018-05-07T06:11:36.838Z,19.81
2018-05-07T06:14:04.489Z,19.73
2018-05-07T06:16:32.466Z,19.60
2018-05-07T06:19:00.050Z,19.47
2018-05-07T06:21:27.814Z,19.37
2018-05-07T06:23:55.537Z,19.20
2018-05-07T06:26:23.137Z,19.22
2018-05-07T06:28:50.964Z,19.28
2018-05-07T06:31:18.675Z,19.28
2018-05-07T06:33:46.360Z,19.37
2018-05-07T06:36:14.010Z,19.47
2018-05-07T06:38:41.939Z,19.41
2018-05-07T06:41:09.758Z,19.53
2018-05-07T06:43:37.477Z,19.62
2018-05-07T06:46:05.305Z,19.74
2018-05-07T06:48:33.575Z,19.93
2018-05-07T06:51:01.299Z,20.12
2018-05-07T06:53:30.078Z,20.21
2018-05-07T06:55:57.813Z,20.34
2018-05-07T06:58:25.444Z,20.40
2018-05-07T07:00:53.211Z,20.33
2018-05-07T07:03:21.030Z,20.34
2018-05-07T07:05:48.849Z,20.44
2018-05-07T07:08:16.487Z,20.41
2018-05-07T07:10:44.192Z,20.32
2018-05-07T07:13:12.002Z,20.26
2018-05-07T07:15:39.583Z,20.41
2018-05-07T07:18:07.158Z,20.58
2018-05-07T07:20:34.744Z,20.89
2018-05-07T07:23:02.309Z,21.19
2018-05-07T07:25:30.117Z,21.44
2018-05-07T07:27:57.900Z,21.42
2018-05-07T07:30:25.630Z,21.56
2018-05-07T07:32:53.448Z,21.47
2018-05-07T07:35:21.257Z,21.58
2018-05-07T07:37:48.830Z,21.71
2018-05-07T07:40:16.384Z,21.58
2018-05-07T07:42:44.224Z,21.61
2018-05-07T07:45:11.810Z,21.83
2018-05-07T07:47:39.379Z,21.89
2018-05-07T07:50:07.176Z,21.90
2018-05-07T07:52:34.744Z,21.75
2018-05-07T07:55:02.512Z,21.64
2018-05-07T07:57:30.122Z,21.59
2018-05-07T07:59:57.871Z,21.43
2018-05-07T08:02:25.449Z,21.28
2018-05-07T08:04:53.006Z,21.11
2018-05-07T08:07:20.802Z,21.08
2018-05-07T08:09:48.364Z,21.10
2018-05-07T08:12:15.995Z,21.31
2018-05-07T08:14:43.757Z,21.74
2018-05-07T08:17:11.369Z,22.70
2018-05-07T08:19:39.093Z,23.99
2018-05-07T08:22:06.680Z,24.41
2018-05-07T08:24:34.249Z,24.32
2018-05-07T08:27:02.048Z,24.47
2018-05-07T08:29:29.625Z,24.59
2018-05-07T08:31:57.387Z,25.07
2018-05-07T08:34:25.020Z,25.12
2018-05-07T08:36:52.616Z,24.43
2018-05-07T08:39:20.441Z,24.01
2018-05-07T08:41:48.021Z,23.99
2018-05-07T08:44:15.584Z,24.26
2018-05-07T08:46:43.392Z,24.52
2018-05-07T08:49:10.944Z,24.49
2018-05-07T08:51:38.553Z,24.25
2018-05-07T08:54:06.347Z,24.29
2018-05-07T08:56:33.981Z,24.35
2018-05-07T08:59:01.783Z,24.02
2018-05-07T09:01:29.603Z,23.71
2018-05-07T09:03:57.422Z,23.44
2018-05-07T09:06:25.134Z,23.33
2018-05-07T09:08:52.780Z,23.01
2018-05-07T09:11:20.577Z,22.96
2018-05-07T09:13:48.527Z,22.83
2018-05-07T09:16:16.089Z,22.93
2018-05-07T09:18:43.666Z,23.06
2018-05-07T09:21:11.247Z,23.02
2018-05-07T09:23:38.862Z,23.03
2018-05-07T09:26:06.492Z,23.13
2018-05-07T09:28:34.057Z,23.18
2018-05-07T09:31:01.730Z,23.14
2018-05-07T09:33:29.344Z,23.22
2018-05-07T09:35:57.157Z,23.26
2018-05-07T09:38:24.720Z,23.22
2018-05-07T09:40:52.493Z,23.09
2018-05-07T09:43:20.117Z,23.23
2018-05-07T09:45:48.131Z,23.13
2018-05-07T09:48:15.971Z,22.80
2018-05-07T09:50:43.768Z,22.68
2018-05-07T09:53:11.328Z,22.63
2018-05-07T09:55:39.106Z,22.61
2018-05-07T09:58:06.734Z,22.64
2018-05-07T10:00:37.848Z,22.63
2018-05-07T10:03:05.675Z,22.64
2018-05-07T10:05:34.892Z,22.85
2018-05-07T10:08:02.628Z,22.95
2018-05-07T10:10:30.434Z,23.02
2018-05-07T10:12:58.004Z,23.20
2018-05-07T10:15:26.872Z,23.25
2018-05-07T10:17:54.487Z,23.33
2018-05-07T10:20:22.057Z,23.64
2018-05-07T10:22:49.626Z,23.86
2018-05-07T10:25:17.331Z,24.01
2018-05-07T10:27:45.164Z,23.92
2018-05-07T10:30:12.949Z,23.93
2018-05-07T10:32:40.511Z,23.93
2018-05-07T10:35:08.240Z,23.95
2018-05-07T10:37:36.035Z,23.77
2018-05-07T10:40:03.676Z,23.88
2018-05-07T10:42:31.471Z,23.92
2018-05-07T10:44:59.042Z,23.94
2018-05-07T10:47:26.645Z,23.95
2018-05-07T10:49:54.227Z,23.92
2018-05-07T10:52:21.832Z,23.74
2018-05-07T10:54:49.480Z,23.67
2018-05-07T10:57:17.074Z,23.67
2018-05-07T10:59:44.658Z,23.72
2018-05-07T11:02:12.307Z,23.69
2018-05-07T11:04:39.892Z,23.69
2018-05-07T11:07:07.628Z,23.87
2018-05-07T11:09:35.317Z,24.01
2018-05-07T11:12:02.899Z,24.08
2018-05-07T11:14:30.486Z,24.08
2018-05-07T11:16:58.294Z,24.11
2018-05-07T11:19:26.089Z,24.12
2018-05-07T11:21:53.784Z,24.17
2018-05-07T11:24:21.581Z,24.32
2018-05-07T11:26:49.213Z,24.47
2018-05-07T11:29:16.816Z,24.40
2018-05-07T11:31:44.377Z,24.41
2018-05-07T11:34:12.146Z,24.33
2018-05-07T11:36:39.971Z,24.44
2018-05-07T11:39:07.866Z,24.78
2018-05-07T11:41:35.709Z,24.76
2018-05-07T11:44:03.507Z,25.18
2018-05-07T11:46:31.449Z,25.39
2018-05-07T11:48:59.368Z,25.41
2018-05-07T11:51:27.071Z,25.44
2018-05-07T11:53:54.700Z,25.57
2018-05-07T11:56:22.312Z,25.58
2018-05-07T11:58:49.894Z,25.68
2018-05-07T12:01:17.473Z,25.71
2018-05-07T12:03:45.273Z,25.59
2018-05-07T12:06:12.856Z,25.70
2018-05-07T12:08:40.609Z,25.79
2018-05-07T12:11:08.338Z,25.96
2018-05-07T12:13:35.911Z,26.02
2018-05-07T12:16:03.641Z,25.98
2018-05-07T12:18:31.237Z,25.93
2018-05-07T12:20:58.922Z,25.78
2018-05-07T12:23:26.516Z,25.82
2018-05-07T12:25:54.077Z,25.90
2018-05-07T12:28:21.689Z,25.63
2018-05-07T12:30:49.478Z,25.52
2018-05-07T12:33:17.290Z,25.82
2018-05-07T12:35:44.903Z,25.94
2018-05-07T12:38:12.468Z,26.17
2018-05-07T12:40:40.245Z,26.37
2018-05-07T12:43:07.850Z,26.37
2018-05-07T12:45:35.472Z,26.40
2018-05-07T12:48:03.044Z,26.54
2018-05-07T12:50:30.602Z,26.64
2018-05-07T12:52:58.180Z,26.79
2018-05-07T12:55:25.953Z,26.87
2018-05-07T12:57:53.562Z,26.65
2018-05-07T13:00:21.294Z,26.57
2018-05-07T13:02:48.955Z,25.77
2018-05-07T13:05:16.559Z,25.63
2018-05-07T13:07:44.135Z,25.81
2018-05-07T13:10:11.707Z,25.90
2018-05-07T13:12:39.269Z,25.93
2018-05-07T13:15:06.854Z,25.79
2018-05-07T13:17:34.507Z,25.86
2018-05-07T13:20:02.137Z,26.11
2018-05-07T13:22:29.695Z,26.43
2018-05-07T13:24:57.512Z,26.17
2018-05-07T13:27:25.092Z,26.03
2018-05-07T13:29:52.907Z,26.28
2018-05-07T13:32:20.617Z,26.40
2018-05-07T13:34:48.187Z,26.49
2018-05-07T13:37:15.852Z,26.51
2018-05-07T13:39:43.410Z,26.26
2018-05-07T13:42:10.995Z,26.32
2018-05-07T13:44:38.603Z,26.60
2018-05-07T13:47:06.208Z,26.65
2018-05-07T13:49:33.780Z,26.81
2018-05-07T13:52:01.363Z,26.95
2018-05-07T13:54:29.057Z,26.94
2018-05-07T13:56:56.872Z,26.72
2018-05-07T13:59:24.622Z,26.45
2018-05-07T14:01:52.788Z,26.49
2018-05-07T14:04:20.376Z,26.75
2018-05-07T14:06:48.179Z,26.78
2018-05-07T14:09:15.778Z,26.85
2018-05-07T14:11:43.502Z,26.79
2018-05-07T14:14:11.334Z,26.82
2018-05-07T14:16:39.161Z,26.51
2018-05-07T14:19:06.761Z,26.31
2018-05-07T14:21:34.338Z,26.33
2018-05-07T14:24:01.967Z,26.03
2018-05-07T14:26:29.545Z,25.84
2018-05-07T14:28:57.184Z,25.79
2018-05-07T14:31:24.933Z,25.82
2018-05-07T14:33:52.496Z,25.66
2018-05-07T14:36:20.135Z,25.55
2018-05-07T14:38:47.996Z,25.70
2018-05-07T14:41:15.582Z,25.72
2018-05-07T14:43:43.451Z,25.79
2018-05-07T14:46:11.181Z,25.70
2018-05-07T14:48:38.988Z,25.62
2018-05-07T14:51:07.503Z,25.60
2018-05-07T14:53:35.076Z,25.37
2018-05-07T14:56:02.782Z,25.30
2018-05-07T14:58:30.565Z,25.36
2018-05-07T15:00:58.386Z,25.30
2018-05-07T15:03:26.118Z,25.30
2018-05-07T15:05:53.806Z,25.21
2018-05-07T15:08:21.468Z,25.03
2018-05-07T15:10:49.256Z,24.95
2018-05-07T15:13:16.948Z,25.04
2018-05-07T15:15:44.588Z,25.10
2018-05-07T15:18:12.152Z,24.96
2018-05-07T15:20:39.713Z,24.64
2018-05-07T15:23:07.297Z,24.44
2018-05-07T15:25:34.868Z,24.12
2018-05-07T15:28:02.490Z,23.98
2018-05-07T15:30:30.113Z,23.89
2018-05-07T15:32:57.727Z,23.73
2018-05-07T15:35:25.325Z,23.52
2018-05-07T15:37:52.888Z,23.34
2018-05-07T15:40:20.463Z,23.02
2018-05-07T15:42:48.036Z,22.85
2018-05-07T15:45:15.655Z,22.67
2018-05-07T15:47:43.386Z,22.67
2018-05-07T15:50:10.964Z,22.61
2018-05-07T15:52:38.640Z,22.53
2018-05-07T15:55:06.359Z,22.41
2018-05-07T15:57:34.198Z,22.34
2018-05-07T16:00:02.019Z,22.20
2018-05-07T16:02:29.753Z,22.14
2018-05-07T16:04:57.398Z,22.12
2018-05-07T16:07:25.172Z,22.18
2018-05-07T16:09:52.730Z,22.23
2018-05-07T16:12:20.316Z,22.19
2018-05-07T16:14:48.001Z,22.24
2018-05-07T16:17:15.544Z,22.26
2018-05-07T16:19:43.111Z,22.30
2018-05-07T16:22:10.838Z,22.35
2018-05-07T16:24:38.368Z,22.42
2018-05-07T16:27:06.007Z,22.44
2018-05-07T16:29:33.605Z,22.43
2018-05-07T16:32:01.245Z,22.39
2018-05-07T16:34:28.858Z,22.33
2018-05-07T16:36:56.436Z,22.30
2018-05-07T16:39:23.989Z,22.23
2018-05-07T16:41:51.577Z,22.28
2018-05-07T16:44:19.132Z,22.30
2018-05-07T16:46:46.959Z,22.30
2018-05-07T16:49:14.508Z,22.25
2018-05-07T16:51:42.144Z,22.08
2018-05-07T16:54:09.716Z,21.99
2018-05-07T16:56:37.288Z,21.95
2018-05-07T16:59:04.864Z,21.99
2018-05-07T17:01:32.439Z,21.95
2018-05-07T17:04:00.017Z,21.90
2018-05-07T17:06:27.600Z,21.91
2018-05-07T17:08:55.420Z,21.83
2018-05-07T17:11:23.241Z,21.72
2018-05-07T17:13:50.827Z,21.71
2018-05-07T17:16:18.543Z,21.73
2018-05-07T17:18:46.124Z,21.70
2018-05-07T17:21:13.697Z,21.66
2018-05-07T17:23:41.424Z,21.60
2018-05-07T17:26:09.249Z,21.63
2018-05-07T17:28:37.067Z,21.63
2018-05-07T17:31:04.676Z,21.51
2018-05-07T17:33:32.517Z,21.51
2018-05-07T17:36:00.124Z,21.49
2018-05-07T17:38:27.732Z,21.44
2018-05-07T17:40:55.558Z,21.42
2018-05-07T17:43:23.259Z,21.40
2018-05-07T17:46:02.602Z,21.32
2018-05-07T17:48:41.985Z,21.30
2018-05-07T17:51:09.718Z,21.19
2018-05-07T17:53:37.269Z,21.23
2018-05-07T17:56:04.968Z,21.21
2018-05-07T17:58:32.526Z,21.20
2018-05-07T18:01:00.120Z,21.17
2018-05-07T18:03:27.694Z,21.12
2018-05-07T18:05:55.409Z,21.04
2018-05-07T18:08:23.017Z,21.02
2018-05-07T18:10:50.719Z,20.96
2018-05-07T18:13:18.181Z,20.87
2018-05-07T18:15:45.740Z,20.68
2018-05-07T18:18:13.300Z,20.62
2018-05-07T18:20:40.861Z,20.57
2018-05-07T18:23:08.500Z,20.42
2018-05-07T18:25:36.129Z,20.34
2018-05-07T18:28:04.127Z,20.24
2018-05-07T18:30:32.202Z,20.20
2018-05-07T18:32:59.805Z,20.13
2018-05-07T18:35:27.531Z,20.08
2018-05-07T18:37:55.208Z,19.99
2018-05-07T18:40:22.796Z,19.91
2018-05-07T18:42:50.360Z,19.83
2018-05-07T18:45:17.951Z,19.75
2018-05-07T18:47:45.521Z,19.67
2018-05-07T18:50:13.081Z,19.66
2018-05-07T18:52:40.654Z,19.66
2018-05-07T18:55:08.259Z,19.59
2018-05-07T18:57:35.897Z,19.44
2018-05-07T19:00:03.825Z,19.35
2018-05-07T19:02:31.638Z,19.38
2018-05-07T19:04:59.456Z,19.37
2018-05-07T19:07:27.065Z,19.36
2018-05-07T19:09:54.652Z,19.33
2018-05-07T19:12:22.216Z,19.31
2018-05-07T19:14:49.894Z,19.32
2018-05-07T19:17:17.531Z,19.30
2018-05-07T19:19:45.429Z,19.25
2018-05-07T19:22:13.189Z,19.26
2018-05-07T19:24:40.797Z,19.20
2018-05-07T19:27:09.529Z,19.16
2018-05-07T19:29:37.220Z,19.15
2018-05-07T19:32:04.950Z,19.11
2018-05-07T19:34:32.981Z,19.01
2018-05-07T19:37:00.799Z,19.00
2018-05-07T19:39:28.497Z,18.98
2018-05-07T19:41:56.119Z,18.98
2018-05-07T19:44:23.687Z,18.94
2018-05-07T19:46:51.471Z,18.94
2018-05-07T19:49:19.134Z,18.89
2018-05-07T19:51:46.704Z,18.83
2018-05-07T19:54:14.318Z,18.83
2018-05-07T19:56:42.115Z,18.80
2018-05-07T19:59:09.834Z,18.76
2018-05-07T20:01:37.579Z,18.73
2018-05-07T20:04:05.230Z,18.73
2018-05-07T20:06:32.963Z,18.74
2018-05-07T20:09:00.734Z,18.73
2018-05-07T20:11:28.332Z,18.49
2018-05-07T20:13:55.944Z,18.55
2018-05-07T20:16:23.792Z,18.56
2018-05-07T20:18:51.413Z,18.54
2018-05-07T20:21:19.203Z,18.55
2018-05-07T20:23:47.023Z,18.48
2018-05-07T20:26:14.862Z,18.37
2018-05-07T20:28:42.528Z,18.31
2018-05-07T20:31:10.502Z,18.24
2018-05-07T20:33:38.319Z,18.23
2018-05-07T20:36:05.936Z,18.23
2018-05-07T20:38:33.757Z,18.21
2018-05-07T20:41:01.574Z,18.21
2018-05-07T20:43:29.314Z,18.17
2018-05-07T20:45:57.038Z,18.13
2018-05-07T20:48:24.651Z,18.01
2018-05-07T20:50:52.293Z,17.86
2018-05-07T20:53:19.984Z,17.81
2018-05-07T20:55:47.649Z,17.72
2018-05-07T20:58:15.506Z,17.73
2018-05-07T21:00:43.093Z,17.62
2018-05-07T21:03:10.938Z,17.74
2018-05-07T21:05:38.670Z,17.73
2018-05-07T21:08:06.459Z,17.70
2018-05-07T21:10:34.112Z,17.68
2018-05-07T21:13:01.768Z,17.70
2018-05-07T21:15:29.357Z,17.66
2018-05-07T21:17:56.968Z,17.69
2018-05-07T21:20:24.784Z,17.64
2018-05-07T21:22:52.401Z,17.71
2018-05-07T21:25:20.264Z,17.66
2018-05-07T21:27:47.835Z,17.65
2018-05-07T21:30:15.419Z,17.65
2018-05-07T21:32:43.257Z,17.60
2018-05-07T21:35:10.835Z,17.52
2018-05-07T21:37:38.424Z,17.54
2018-05-07T21:40:06.211Z,17.44
2018-05-07T21:42:34.029Z,17.47
2018-05-07T21:45:01.848Z,17.50
2018-05-07T21:47:29.670Z,17.51
2018-05-07T21:49:57.279Z,17.66
2018-05-07T21:52:24.868Z,17.73
2018-05-07T21:54:52.441Z,17.73
2018-05-07T21:57:20.028Z,17.73
2018-05-07T21:59:47.635Z,17.68
2018-05-07T22:02:15.235Z,17.74
2018-05-07T22:04:42.837Z,17.78
2018-05-07T22:07:10.624Z,17.84
2018-05-07T22:09:38.491Z,17.89
2018-05-07T22:12:06.081Z,17.87
2018-05-07T22:14:33.849Z,17.90
2018-05-07T22:17:01.432Z,17.93
2018-05-07T22:19:29.182Z,17.91
2018-05-07T22:21:56.784Z,17.87
2018-05-07T22:24:24.530Z,17.79
2018-05-07T22:26:52.261Z,17.73
2018-05-07T22:29:20.077Z,17.73
2018-05-07T22:31:47.730Z,17.54
2018-05-07T22:34:15.513Z,17.65
2018-05-07T22:36:43.169Z,17.57
2018-05-07T22:39:10.967Z,17.58
2018-05-07T22:41:38.566Z,17.61
2018-05-07T22:44:06.156Z,17.54
2018-05-07T22:46:33.741Z,17.51
2018-05-07T22:49:01.390Z,17.51
2018-05-07T22:51:29.062Z,17.45
2018-05-07T22:53:56.641Z,17.38
2018-05-07T22:56:24.374Z,17.39
2018-05-07T22:58:52.084Z,17.40
2018-05-07T23:01:19.659Z,17.38
2018-05-07T23:03:47.248Z,17.35
2018-05-07T23:06:14.809Z,17.28
2018-05-07T23:08:42.416Z,17.23
2018-05-07T23:11:10.008Z,17.19
2018-05-07T23:13:37.639Z,17.15
2018-05-07T23:16:05.268Z,17.13
2018-05-07T23:18:32.834Z,17.08
2018-05-07T23:21:00.419Z,16.98
2018-05-07T23:23:27.980Z,16.85
2018-05-07T23:25:55.557Z,16.72
2018-05-07T23:28:23.143Z,16.69
2018-05-07T23:30:50.714Z,16.72
2018-05-07T23:33:18.291Z,16.75
2018-05-07T23:35:45.872Z,16.78
2018-05-07T23:38:13.456Z,16.75
2018-05-07T23:40:41.032Z,16.76
2018-05-07T23:43:08.629Z,16.76
2018-05-07T23:45:36.221Z,16.74
2018-05-07T23:48:03.970Z,16.73
2018-05-07T23:50:31.564Z,16.64
2018-05-07T23:52:59.368Z,16.61
2018-05-07T23:55:26.964Z,16.59
2018-05-07T23:57:54.679Z,16.52
